This is the latest recevied weather packets stored in our database for station/object WJ4X-13. If no packets are shown the sender has not sent any weather packets the latest 10 day(s).
| Time | Temp. | Humidity | Pressure | Rain* | Wind** | Luminosity | Snow |
|---|---|---|---|---|---|---|---|
| 1777846553 | 20° C | 51% | 1018.1 hPa | 0 mm | - | - | - |
| 1777844755 | 20° C | 49% | 1018.3 hPa | 0 mm | - | - | - |
| 1777837546 | 20° C | 48% | 1019.9 hPa | 0 mm | - | - | - |
| 1777826725 | 17.22° C | 56% | 1022.1 hPa | 0 mm | - | - | - |
| 1777820413 | 15° C | 66% | 1022.7 hPa | 0 mm | - | - | - |
| 1777819513 | 15° C | 68% | 1022.6 hPa | 0 mm | - | - | - |
| 1777815962 | 13.33° C | 74% | 1022.2 hPa | 0 mm | - | - | - |
| 1777809635 | 7.78° C | 99% | 1021.8 hPa | 0 mm | - | - | - |
| 1777806928 | 4.44° C | 98% | 1021.3 hPa | 0 mm | - | - | - |
| 1777806026 | 4.44° C | 98% | 1021.1 hPa | 0 mm | - | - | - |
| 1777799714 | 5° C | 98% | 1019.8 hPa | 0 mm | - | - | - |
| 1777797008 | 5.56° C | 98% | 1019.6 hPa | 0 mm | - | - | - |
| 1777796110 | 5.56° C | 97% | 1019.3 hPa | 0 mm | - | - | - |
| 1777791655 | 6.67° C | 97% | 1018.5 hPa | 0 mm | - | - | - |
| 1777786244 | 7.78° C | 97% | 1018.4 hPa | 0 mm | - | - | - |
| 1777772710 | 10.56° C | 96% | 1016.3 hPa | 0 mm | - | - | - |
| 1777770917 | 11.11° C | 95% | 1015.6 hPa | 1.27 mm | - | - | - |
| 1777770008 | 11.11° C | 94% | 1015.4 hPa | 3.3 mm | - | - | - |
| 1777763757 | 16.11° C | 80% | 1013.4 hPa | 0 mm | - | - | - |
| 1777758349 | 18.33° C | 69% | 1012.8 hPa | 0 mm | - | - | - |
| 1777757448 | 18.33° C | 66% | 1012.7 hPa | 0 mm | - | - | - |
| 1777755655 | 17.78° C | 68% | 1012.7 hPa | 0 mm | - | - | - |
| 1777752946 | 17.78° C | 68% | 1012.9 hPa | 0 mm | - | - | - |
| 1777752045 | 17.78° C | 66% | 1012.9 hPa | 0 mm | - | - | - |
| 1777750244 | 17.78° C | 65% | 1013.3 hPa | 0 mm | - | - | - |
* Rain latest hour (hover to see other rain measurements)
** Current wind speed in m/s (hover to see current wind gust speed)